createdAt,value
2019-06-08T00:02:43.537Z,14.71
2019-06-08T00:05:25.984Z,14.74
2019-06-08T00:08:16.837Z,14.75
2019-06-08T00:11:01.245Z,14.71
2019-06-08T00:19:40.962Z,14.72
2019-06-08T00:22:30.655Z,14.70
2019-06-08T00:25:13.807Z,14.71
2019-06-08T00:28:03.573Z,14.72
2019-06-08T00:30:46.358Z,14.71
2019-06-08T00:33:36.051Z,14.70
2019-06-08T00:36:18.804Z,14.73
2019-06-08T00:42:11.879Z,14.80
2019-06-08T00:45:01.735Z,14.66
2019-06-08T00:47:48.025Z,14.71
2019-06-08T00:50:35.440Z,14.80
2019-06-08T00:53:17.372Z,14.78
2019-06-08T00:56:07.117Z,14.81
2019-06-08T00:58:49.681Z,14.68
2019-06-08T01:01:39.374Z,14.84
2019-06-08T01:04:29.219Z,14.71
2019-06-08T01:07:11.955Z,14.87
2019-06-08T01:13:05.530Z,14.87
2019-06-08T01:15:47.934Z,14.78
2019-06-08T01:18:38.029Z,14.81
2019-06-08T01:21:27.849Z,14.72
2019-06-08T01:24:17.564Z,14.84
2019-06-08T01:27:07.300Z,14.82
2019-06-08T01:29:49.196Z,14.86
2019-06-08T01:32:38.949Z,14.80
2019-06-08T01:35:21.108Z,14.81
2019-06-08T01:38:04.018Z,14.75
2019-06-08T01:40:53.857Z,14.80
2019-06-08T01:43:43.620Z,14.79
2019-06-08T01:46:25.915Z,14.74
2019-06-08T01:49:15.673Z,14.72
2019-06-08T01:52:05.478Z,14.74
2019-06-08T01:54:55.273Z,14.68
2019-06-08T01:57:45.134Z,14.63
2019-06-08T02:00:55.374Z,14.67
2019-06-08T02:03:37.774Z,14.68
2019-06-08T02:06:28.446Z,14.68
2019-06-08T02:09:11.929Z,14.66
2019-06-08T02:12:01.671Z,14.62
2019-06-08T02:14:44.415Z,14.60
2019-06-08T02:17:35.483Z,14.54
2019-06-08T02:20:18.514Z,14.44
2019-06-08T02:26:02.900Z,14.46
2019-06-08T02:28:52.754Z,14.33
2019-06-08T02:34:25.741Z,14.40
2019-06-08T02:37:15.477Z,14.41
2019-06-08T02:39:58.264Z,14.47
2019-06-08T02:42:48.026Z,14.36
2019-06-08T02:45:31.862Z,14.38
2019-06-08T02:48:21.573Z,14.39
2019-06-08T02:51:11.444Z,14.40
2019-06-08T02:53:53.748Z,14.22
2019-06-08T02:56:36.772Z,14.28
2019-06-08T03:02:43.512Z,14.15
2019-06-08T03:05:53.884Z,14.25
2019-06-08T03:08:44.149Z,14.32
2019-06-08T03:14:48.230Z,14.00
2019-06-08T03:17:39.903Z,14.18
2019-06-08T03:20:26.155Z,14.16
2019-06-08T03:23:08.295Z,13.98
2019-06-08T03:25:58.103Z,14.15
2019-06-08T03:28:47.924Z,14.18
2019-06-08T03:31:43.457Z,14.15
2019-06-08T03:34:23.645Z,14.13
2019-06-08T03:37:05.848Z,14.06
2019-06-08T03:39:55.578Z,14.06
2019-06-08T03:42:45.272Z,13.85
2019-06-08T03:45:28.091Z,14.02
2019-06-08T03:48:17.846Z,14.02
2019-06-08T03:50:59.986Z,14.06
2019-06-08T03:53:49.743Z,14.05
2019-06-08T03:56:32.427Z,14.03
2019-06-08T03:59:22.121Z,13.99
2019-06-08T04:02:05.794Z,13.97
2019-06-08T04:04:55.493Z,13.95
2019-06-08T04:07:39.673Z,13.91
2019-06-08T04:10:29.610Z,13.84
2019-06-08T04:13:12.353Z,14.00
2019-06-08T04:16:02.099Z,14.00
2019-06-08T04:18:46.953Z,13.90
2019-06-08T04:21:37.877Z,13.87
2019-06-08T04:24:21.453Z,13.83
2019-06-08T04:27:11.193Z,13.91
2019-06-08T04:29:53.416Z,13.76
2019-06-08T04:32:44.924Z,13.94
2019-06-08T04:35:29.603Z,13.92
2019-06-08T04:38:00.265Z,13.92
2019-06-08T04:40:50.083Z,13.90
2019-06-08T04:46:33.773Z,13.89
2019-06-08T04:49:23.513Z,13.87
2019-06-08T04:52:07.569Z,13.89
2019-06-08T04:54:57.301Z,13.88
2019-06-08T04:57:41.367Z,13.84
2019-06-08T05:00:31.538Z,13.83
2019-06-08T05:03:14.568Z,13.82
2019-06-08T05:06:04.466Z,13.85
2019-06-08T05:08:47.425Z,13.94
2019-06-08T05:11:56.345Z,13.90
2019-06-08T05:14:39.107Z,13.86
2019-06-08T05:17:28.868Z,13.98
2019-06-08T05:20:11.945Z,13.97
2019-06-08T05:25:56.036Z,14.13
2019-06-08T05:28:45.810Z,14.34
2019-06-08T05:31:35.607Z,14.22
2019-06-08T05:34:25.378Z,14.23
2019-06-08T05:37:07.939Z,14.25
2019-06-08T05:39:57.646Z,14.25
2019-06-08T05:42:42.018Z,14.90
2019-06-08T05:45:31.686Z,16.47
2019-06-08T05:48:21.466Z,16.71
2019-06-08T05:51:24.510Z,16.56
2019-06-08T05:54:07.469Z,16.01
2019-06-08T05:56:57.182Z,15.60
2019-06-08T05:59:40.056Z,15.58
2019-06-08T06:02:31.826Z,15.51
2019-06-08T06:05:14.430Z,15.26
2019-06-08T06:08:16.067Z,15.37
2019-06-08T06:10:48.948Z,15.55
2019-06-08T06:13:38.725Z,15.75
2019-06-08T06:16:20.606Z,15.73
2019-06-08T06:19:10.330Z,15.87
2019-06-08T06:21:52.656Z,15.81
2019-06-08T06:24:43.721Z,16.05
2019-06-08T06:27:27.617Z,16.14
2019-06-08T06:33:14.531Z,15.95
2019-06-08T06:36:23.371Z,15.70
2019-06-08T06:39:06.521Z,16.04
2019-06-08T06:42:15.483Z,16.31
2019-06-08T06:45:06.067Z,16.39
2019-06-08T06:47:55.835Z,16.61
2019-06-08T06:50:46.288Z,16.73
2019-06-08T06:53:36.996Z,16.68
2019-06-08T06:56:18.937Z,16.87
2019-06-08T06:59:08.674Z,17.20
2019-06-08T07:01:54.120Z,17.41
2019-06-08T07:04:43.727Z,17.58
2019-06-08T07:07:26.819Z,17.58
2019-06-08T07:10:16.647Z,17.50
2019-06-08T07:12:58.663Z,17.31
2019-06-08T07:15:51.534Z,17.03
2019-06-08T07:18:32.741Z,17.16
2019-06-08T07:21:22.548Z,17.27
2019-06-08T07:24:04.829Z,17.32
2019-06-08T07:26:54.656Z,17.49
2019-06-08T07:29:37.553Z,17.50
2019-06-08T07:32:27.379Z,17.75
2019-06-08T07:35:09.795Z,18.08
2019-06-08T07:37:59.906Z,18.26
2019-06-08T07:40:50.028Z,18.31
2019-06-08T07:43:39.829Z,18.68
2019-06-08T07:46:49.321Z,18.76
2019-06-08T07:49:33.780Z,19.05
2019-06-08T07:52:23.545Z,19.40
2019-06-08T07:55:32.633Z,19.45
2019-06-08T07:58:14.704Z,19.71
2019-06-08T08:01:08.131Z,19.50
2019-06-08T08:03:52.173Z,19.26
2019-06-08T08:09:45.630Z,19.36
2019-06-08T08:12:30.146Z,19.69
2019-06-08T08:15:20.555Z,19.69
2019-06-08T08:18:10.833Z,19.58
2019-06-08T08:20:55.840Z,19.84
2019-06-08T08:23:47.890Z,19.74
2019-06-08T08:26:34.356Z,19.94
2019-06-08T08:29:23.012Z,19.58
2019-06-08T08:32:12.980Z,19.76
2019-06-08T08:35:03.326Z,19.98
2019-06-08T08:37:56.321Z,19.68
2019-06-08T08:40:38.804Z,19.44
2019-06-08T08:43:29.542Z,19.44
2019-06-08T08:46:39.016Z,19.34
2019-06-08T08:49:47.991Z,19.53
2019-06-08T08:52:36.889Z,19.49
2019-06-08T08:55:22.943Z,19.74
2019-06-08T08:58:13.386Z,19.85
2019-06-08T09:01:22.861Z,19.86
2019-06-08T09:04:31.716Z,19.98
2019-06-08T09:07:15.287Z,20.00
2019-06-08T09:10:00.547Z,20.13
2019-06-08T09:12:49.443Z,20.48
2019-06-08T09:18:33.001Z,20.02
2019-06-08T09:21:23.325Z,20.40
2019-06-08T09:24:13.143Z,20.34
2019-06-08T09:27:04.317Z,20.62
2019-06-08T09:29:48.236Z,20.94
2019-06-08T09:32:38.626Z,21.22
2019-06-08T09:35:28.914Z,21.05
2019-06-08T09:38:03.250Z,21.16
2019-06-08T09:40:33.317Z,20.66
2019-06-08T09:43:10.375Z,20.42
2019-06-08T09:45:58.745Z,20.56
2019-06-08T09:48:40.943Z,20.77
2019-06-08T09:51:31.253Z,21.16
2019-06-08T09:54:14.185Z,21.45
2019-06-08T09:57:06.657Z,21.70
2019-06-08T09:59:49.689Z,21.72
2019-06-08T10:02:39.979Z,21.84
2019-06-08T10:05:24.291Z,21.80
2019-06-08T10:08:14.856Z,21.99
2019-06-08T10:11:01.410Z,21.87
2019-06-08T10:13:50.200Z,21.75
2019-06-08T10:16:33.416Z,21.63
2019-06-08T10:19:23.710Z,21.51
2019-06-08T10:22:08.633Z,21.27
2019-06-08T10:25:02.825Z,21.58
2019-06-08T10:27:44.239Z,21.41
2019-06-08T10:30:34.552Z,21.50
2019-06-08T10:33:18.460Z,21.77
2019-06-08T10:36:12.198Z,21.92
2019-06-08T10:38:56.704Z,22.11
2019-06-08T10:41:51.286Z,21.98
2019-06-08T10:44:32.694Z,22.34
2019-06-08T10:47:23.037Z,22.40
2019-06-08T10:50:14.581Z,22.58
2019-06-08T10:53:03.648Z,22.89
2019-06-08T10:55:48.056Z,23.22
2019-06-08T10:58:37.259Z,23.04
2019-06-08T11:01:20.340Z,22.90
2019-06-08T11:04:10.582Z,22.92
2019-06-08T11:06:53.840Z,23.04
2019-06-08T11:09:44.120Z,23.14
2019-06-08T11:12:31.119Z,22.99
2019-06-08T11:15:21.418Z,22.91
2019-06-08T11:18:13.460Z,23.12
2019-06-08T11:20:58.451Z,22.99
2019-06-08T11:24:04.715Z,22.86
2019-06-08T11:26:33.249Z,22.86
2019-06-08T11:29:23.734Z,23.50
2019-06-08T11:32:10.934Z,23.59
2019-06-08T11:34:59.887Z,23.73
2019-06-08T11:37:43.709Z,23.87
2019-06-08T11:40:33.996Z,23.40
2019-06-08T11:43:18.302Z,23.46
2019-06-08T11:46:08.733Z,23.62
2019-06-08T11:48:51.587Z,23.31
2019-06-08T11:51:41.863Z,23.77
2019-06-08T11:54:34.341Z,23.76
2019-06-08T11:57:17.643Z,23.99
2019-06-08T12:00:09.262Z,24.39
2019-06-08T12:02:53.576Z,24.09
2019-06-08T12:05:37.123Z,23.99
2019-06-08T12:08:28.450Z,24.04
2019-06-08T12:11:18.070Z,24.14
2019-06-08T12:14:04.806Z,23.90
2019-06-08T12:16:49.462Z,24.02
2019-06-08T12:19:39.777Z,23.88
2019-06-08T12:22:23.142Z,24.21
2019-06-08T12:25:14.191Z,24.44
2019-06-08T12:27:58.629Z,24.26
2019-06-08T12:30:49.014Z,24.53
2019-06-08T12:33:33.320Z,24.25
2019-06-08T12:36:23.692Z,24.49
2019-06-08T12:39:14.266Z,24.42
2019-06-08T12:42:00.659Z,24.22
2019-06-08T12:44:50.938Z,24.40
2019-06-08T12:47:41.235Z,24.55
2019-06-08T12:50:28.176Z,24.46
2019-06-08T12:53:15.976Z,24.47
2019-06-08T12:56:24.200Z,24.51
2019-06-08T12:59:18.542Z,24.66
2019-06-08T13:02:00.222Z,24.39
2019-06-08T13:04:50.590Z,24.35
2019-06-08T13:07:40.930Z,24.39
2019-06-08T13:13:37.615Z,24.52
2019-06-08T13:16:24.210Z,24.73
2019-06-08T13:19:05.017Z,24.22
2019-06-08T13:21:55.408Z,23.51
2019-06-08T13:24:47.776Z,23.03
2019-06-08T13:27:38.175Z,23.67
2019-06-08T13:30:25.864Z,24.14
2019-06-08T13:33:14.032Z,24.02
2019-06-08T13:35:58.153Z,24.54
2019-06-08T13:38:48.457Z,25.01
2019-06-08T13:41:31.020Z,25.37
2019-06-08T13:44:21.940Z,25.51
2019-06-08T13:47:07.633Z,25.54
2019-06-08T13:50:19.238Z,25.55
2019-06-08T13:53:01.217Z,25.43
2019-06-08T13:55:56.344Z,25.41
2019-06-08T13:58:38.101Z,24.91
2019-06-08T14:01:30.830Z,25.05
2019-06-08T14:04:12.311Z,25.12
2019-06-08T14:07:02.611Z,24.92
2019-06-08T14:09:47.814Z,24.71
2019-06-08T14:12:38.451Z,25.03
2019-06-08T14:15:23.359Z,25.12
2019-06-08T14:18:13.660Z,25.14
2019-06-08T14:20:58.714Z,25.06
2019-06-08T14:23:48.829Z,24.85
2019-06-08T14:26:32.196Z,25.01
2019-06-08T14:29:23.272Z,24.09
2019-06-08T14:32:07.860Z,23.61
2019-06-08T14:34:58.459Z,23.72
2019-06-08T14:37:48.807Z,23.75
2019-06-08T14:40:39.209Z,23.90
2019-06-08T14:43:31.280Z,24.11
2019-06-08T14:46:14.240Z,24.16
2019-06-08T14:49:04.608Z,24.58
2019-06-08T14:51:54.962Z,24.44
2019-06-08T14:54:45.446Z,24.26
2019-06-08T14:57:37.444Z,24.23
2019-06-08T15:00:22.992Z,24.27
2019-06-08T15:03:13.400Z,24.47
2019-06-08T15:06:03.722Z,24.61
2019-06-08T15:08:54.192Z,24.67
2019-06-08T15:11:44.714Z,24.63
2019-06-08T15:14:38.343Z,24.54
2019-06-08T15:17:28.945Z,23.51
2019-06-08T15:20:11.815Z,24.16
2019-06-08T15:23:02.175Z,24.48
2019-06-08T15:25:52.517Z,24.37
2019-06-08T15:28:42.881Z,24.81
2019-06-08T15:31:33.169Z,24.88
2019-06-08T15:34:23.472Z,24.83
2019-06-08T15:37:09.183Z,24.83
2019-06-08T15:39:58.727Z,24.80
2019-06-08T15:42:41.840Z,24.90
2019-06-08T15:45:34.116Z,24.87
2019-06-08T15:48:20.219Z,24.65
2019-06-08T15:51:09.344Z,24.59
2019-06-08T15:53:52.624Z,24.62
2019-06-08T15:56:49.510Z,24.67
2019-06-08T15:59:34.163Z,24.40
2019-06-08T16:02:39.449Z,24.24
2019-06-08T16:05:23.444Z,23.75
2019-06-08T16:08:13.880Z,23.24
2019-06-08T16:11:04.236Z,23.06
2019-06-08T16:13:54.618Z,22.96
2019-06-08T16:19:53.113Z,23.07
2019-06-08T16:22:35.984Z,22.80
2019-06-08T16:25:27.555Z,22.66
2019-06-08T16:28:10.885Z,22.49
2019-06-08T16:31:01.348Z,22.50
2019-06-08T16:33:51.685Z,22.31
2019-06-08T16:36:54.819Z,22.32
2019-06-08T16:39:37.363Z,22.57
2019-06-08T16:42:27.986Z,22.64
2019-06-08T16:47:58.522Z,23.02
2019-06-08T16:50:48.812Z,22.89
2019-06-08T16:53:40.032Z,22.75
2019-06-08T16:56:23.703Z,23.06
2019-06-08T16:59:13.991Z,23.35
2019-06-08T17:01:57.377Z,23.45
2019-06-08T17:04:47.694Z,23.10
2019-06-08T17:07:32.162Z,22.73
2019-06-08T17:10:22.519Z,22.36
2019-06-08T17:13:05.359Z,22.28
2019-06-08T17:15:55.681Z,22.07
2019-06-08T17:18:38.832Z,21.89
2019-06-08T17:21:48.461Z,21.85
2019-06-08T17:24:32.525Z,22.18
2019-06-08T17:27:26.773Z,22.32
2019-06-08T17:30:08.826Z,22.33
2019-06-08T17:32:59.318Z,22.04
2019-06-08T17:35:42.563Z,21.86
2019-06-08T17:38:34.055Z,21.92
2019-06-08T17:41:17.942Z,21.78
2019-06-08T17:44:08.165Z,21.59
2019-06-08T17:46:52.583Z,21.45
2019-06-08T17:49:43.379Z,21.42
2019-06-08T17:52:28.123Z,21.37
2019-06-08T17:55:18.641Z,21.50
2019-06-08T18:03:58.055Z,20.82
2019-06-08T18:06:43.409Z,20.56
2019-06-08T18:09:34.292Z,20.62
2019-06-08T18:12:26.996Z,20.64
2019-06-08T18:15:09.772Z,20.81
2019-06-08T18:17:59.690Z,20.75
2019-06-08T18:20:52.053Z,20.71
2019-06-08T18:23:34.447Z,20.79
2019-06-08T18:26:24.758Z,20.85
2019-06-08T18:29:08.065Z,20.94
2019-06-08T18:31:58.790Z,20.73
2019-06-08T18:34:49.109Z,20.70
2019-06-08T18:40:37.915Z,20.59
2019-06-08T18:43:29.060Z,20.55
2019-06-08T18:46:11.223Z,20.52
2019-06-08T18:49:01.776Z,20.46
2019-06-08T18:51:46.245Z,20.31
2019-06-08T18:54:38.470Z,20.28
2019-06-08T18:57:21.216Z,20.21
2019-06-08T19:00:11.843Z,20.13
2019-06-08T19:02:57.790Z,19.99
2019-06-08T19:05:49.868Z,19.85
2019-06-08T19:08:31.036Z,19.78
2019-06-08T19:11:20.782Z,19.79
2019-06-08T19:14:03.152Z,19.64
2019-06-08T19:16:54.834Z,19.43
2019-06-08T19:19:44.350Z,19.50
2019-06-08T19:22:30.447Z,19.47
2019-06-08T19:25:12.960Z,19.58
2019-06-08T19:28:02.694Z,19.52
2019-06-08T19:30:47.640Z,19.41
2019-06-08T19:33:37.455Z,19.48
2019-06-08T19:36:20.456Z,19.52
2019-06-08T19:39:10.181Z,19.53
2019-06-08T19:41:52.469Z,19.56
2019-06-08T19:47:44.977Z,19.64
2019-06-08T19:50:34.699Z,19.63
2019-06-08T19:53:18.295Z,19.51
2019-06-08T19:59:05.128Z,19.44
2019-06-08T20:01:56.507Z,19.44
2019-06-08T20:04:40.653Z,19.41
2019-06-08T20:07:22.983Z,19.37
2019-06-08T20:10:12.961Z,19.44
2019-06-08T20:13:03.328Z,19.30
2019-06-08T20:16:12.717Z,19.24
2019-06-08T20:19:03.085Z,19.14
2019-06-08T20:22:00.316Z,19.14
2019-06-08T20:24:55.300Z,19.11
2019-06-08T20:27:37.114Z,18.92
2019-06-08T20:33:30.058Z,19.01
2019-06-08T20:36:13.151Z,18.97
2019-06-08T20:39:03.490Z,18.99
2019-06-08T20:41:48.491Z,19.00
2019-06-08T20:44:38.546Z,18.94
2019-06-08T20:47:23.321Z,18.86
2019-06-08T20:53:08.632Z,18.88
2019-06-08T20:55:59.021Z,18.80
2019-06-08T20:58:43.247Z,18.77
2019-06-08T21:01:33.171Z,18.66
2019-06-08T21:04:23.023Z,18.57
2019-06-08T21:07:17.383Z,18.42
2019-06-08T21:09:59.497Z,18.38
2019-06-08T21:12:51.382Z,18.33
2019-06-08T21:15:34.203Z,18.36
2019-06-08T21:18:04.867Z,18.24
2019-06-08T21:20:57.451Z,18.14
2019-06-08T21:23:39.685Z,18.04
2019-06-08T21:26:29.551Z,17.97
2019-06-08T21:29:19.307Z,17.79
2019-06-08T21:32:09.163Z,17.68
2019-06-08T21:35:00.387Z,17.66
2019-06-08T21:37:44.821Z,17.46
2019-06-08T21:40:37.476Z,17.61
2019-06-08T21:43:19.691Z,17.54
2019-06-08T21:46:10.041Z,17.31
2019-06-08T21:49:00.584Z,17.20
2019-06-08T21:51:52.930Z,16.96
2019-06-08T21:54:34.775Z,16.76
2019-06-08T21:57:24.552Z,16.41
2019-06-08T22:00:38.874Z,16.44
2019-06-08T22:03:10.962Z,16.32
2019-06-08T22:06:00.668Z,16.14
2019-06-08T22:11:37.577Z,15.93
2019-06-08T22:14:39.546Z,15.84
2019-06-08T22:17:10.342Z,15.85
2019-06-08T22:20:19.166Z,15.86
2019-06-08T22:23:01.413Z,15.90
2019-06-08T22:25:52.446Z,15.98
2019-06-08T22:28:34.971Z,16.11
2019-06-08T22:34:17.460Z,16.20
2019-06-08T22:37:08.516Z,16.31
2019-06-08T22:42:47.924Z,16.29
2019-06-08T22:45:37.541Z,16.07
2019-06-08T22:48:20.629Z,15.91
2019-06-08T22:54:13.018Z,15.70
2019-06-08T22:56:55.365Z,15.80
2019-06-08T22:59:45.073Z,15.68
2019-06-08T23:02:27.919Z,15.81
2019-06-08T23:05:18.539Z,15.75
2019-06-08T23:08:04.589Z,15.64
2019-06-08T23:10:54.223Z,15.63
2019-06-08T23:13:37.855Z,15.87
2019-06-08T23:16:27.588Z,15.67
2019-06-08T23:19:10.405Z,15.61
2019-06-08T23:22:01.314Z,15.47
2019-06-08T23:24:45.034Z,15.40
2019-06-08T23:27:34.739Z,15.35
2019-06-08T23:30:18.498Z,15.38
2019-06-08T23:33:11.500Z,15.49
2019-06-08T23:36:30.797Z,15.44
2019-06-08T23:38:44.005Z,15.41
2019-06-08T23:41:27.275Z,15.43
2019-06-08T23:44:17.637Z,15.23
2019-06-08T23:47:02.939Z,15.04
2019-06-08T23:49:53.803Z,14.87
2019-06-08T23:52:38.187Z,14.86
2019-06-08T23:55:28.117Z,14.69
2019-06-08T23:57:59.939Z,15.03
